METAR Data
IDs: Format: Raw Decoded Include TAF

Data at: 2039 UTC 19 May 2019

KOXV 192035Z AUTO 28016G23KT 10SM OVC020 13/13 A2979 RMK AO2
KOXV 192015Z AUTO 28019G25KT 10SM OVC020 13/13 A2977 RMK AO2
KOXV 191955Z AUTO 28020KT 10SM OVC019 14/14 A2976 RMK AO2 P0002
KOXV 191935Z AUTO 28018KT 10SM BKN017 BKN022 OVC028 14/14 A2975 RMK AO2
KOXV 191915Z AUTO 29014G23KT 3SM BR FEW009 SCT015 BKN023 13/13 A2975 RMK AO2
KOXV 191855Z AUTO 28015G21KT 2SM -RA BKN015 BKN021 14/14 A2974 RMK AO2
KOXV 191835Z AUTO 27016KT 10SM SCT017 BKN023 OVC031 15/15 A2973 RMK AO2
KOXV 191815Z AUTO 28013G19KT 10SM SCT015 BKN024 OVC030 16/16 A2972 RMK AO2
KOXV 191755Z AUTO 29012KT 10SM BKN016 BKN023 OVC028 16/16 A2970 RMK AO2
KOXV 191735Z AUTO 30014KT 10SM OVC017 15/15 A2970 RMK AO2
KOXV 191715Z AUTO 29012G19KT BKN020 OVC025 15/15 A2970 RMK AO2
KOXV 191655Z AUTO 28014KT 10SM BKN020 OVC026 15/15 A2968 RMK AO2
KOXV 191635Z AUTO 29017KT 10SM BKN016 BKN021 OVC025 15/15 A2967 RMK AO2
KOXV 191615Z AUTO 28017KT 10SM BKN013 OVC017 15/15 A2966 RMK AO2
KOXV 191555Z AUTO 26015KT 10SM FEW014 BKN019 OVC025 16/16 A2966 RMK AO2
KOXV 191535Z AUTO 26014G21KT 10SM BKN013 BKN018 OVC022 16/16 A2964 RMK AO2
KOXV 191515Z AUTO 27015KT 10SM SCT012 BKN017 OVC029 16/16 A2963 RMK AO2
KOXV 191455Z AUTO 27015KT 10SM BKN014 BKN023 OVC030 16/16 A2963 RMK AO2
KOXV 191435Z AUTO 28012KT 10SM SCT014 BKN020 OVC085 16/16 A2962 RMK AO2
KOXV 191415Z AUTO 29013KT 10SM BKN014 OVC020 16/16 A2961 RMK AO2
KOXV 191355Z AUTO 29009G15KT 10SM BKN013 OVC020 16/15 A2960 RMK AO2
KOXV 191335Z AUTO 29009KT 10SM BKN014 OVC020 15/15 A2959 RMK AO2
KOXV 191315Z AUTO 27009KT 10SM FEW010 SCT014 BKN070 15/15 A2959 RMK AO2
KOXV 191255Z AUTO 28006KT 10SM FEW075 BKN090 BKN120 15/15 A2958 RMK AO2
KOXV 191235Z AUTO 30008KT 10SM FEW009 FEW021 SCT120 15/14 A2956 RMK AO2
KOXV 191215Z AUTO 30009KT 10SM SCT009 BKN021 BKN120 14/14 A2956 RMK AO2
KOXV 191155Z AUTO 30009G15KT 4SM -RA SCT010 BKN021 BKN049 14/14 A2956 RMK AO2 P0003
KOXV 191135Z AUTO 29010KT 9SM -DZ SCT023 BKN047 BKN065 15/14 A2955 RMK AO2
KOXV 191115Z AUTO 27010KT 10SM SCT045 OVC060 14/14 A2956 RMK AO2
KOXV 191055Z AUTO 25008KT 10SM FEW036 BKN045 OVC060 14/14 A2956 RMK AO2
KOXV 191035Z AUTO 23007KT 10SM FEW032 OVC041 15/15 A2956 RMK AO2
KOXV 191015Z AUTO 23004KT 10SM OVC035 15/15 A2955 RMK AO2
KOXV 190955Z AUTO 23005KT 10SM OVC032 15/15 A2955 RMK AO2
KOXV 190935Z AUTO 29006KT 10SM OVC030 15/15 A2955 RMK AO2
KOXV 190915Z AUTO 30009KT 10SM FEW006 BKN010 OVC029 15/15 A2955 RMK AO2
KOXV 190855Z AUTO 30008KT 5SM BR BKN006 OVC012 15/15 A2954 RMK AO2
KOXV 190835Z AUTO 28009KT 2 1/2SM BR OVC006 15/15 A2954 RMK AO2
KOXV 190815Z AUTO 28009KT 9SM BKN006 BKN012 OVC028 15/15 A2954 RMK AO2
KOXV 190755Z AUTO 27009KT 10SM SCT006 SCT012 OVC027 15/15 A2954 RMK AO2
KOXV 190735Z AUTO 28008KT 10SM BKN007 BKN011 OVC027 15/15 A2954 RMK AO2
KOXV 190715Z AUTO 28010KT 5SM BR SCT006 BKN010 OVC021 15/15 A2954 RMK AO2
KOXV 190655Z AUTO 28009KT 3SM -RA BKN009 BKN019 OVC026 15/15 A2954 RMK AO2
KOXV 190635Z AUTO 29011KT 5SM BR BKN008 BKN018 OVC026 16/15 A2954 RMK AO2
KOXV 190615Z AUTO 28009KT 2 1/2SM RA BKN006 OVC011 16/16 A2955 RMK AO2
KOXV 190555Z AUTO 26008KT 6SM BR OVC006 16/16 A2955 RMK AO2 P0001
KOXV 190535Z AUTO 26009KT 6SM BR OVC006 16/16 A2955 RMK AO2
KOXV 190515Z AUTO 25010G16KT 3SM BR OVC006 16/16 A2955 RMK AO2
KOXV 190455Z AUTO 26011KT 3SM -RA OVC004 17/17 A2955 RMK AO2 P0007
KOXV 190435Z AUTO 23009KT 2 1/2SM -RA OVC003 17/17 A2954 RMK AO2
KOXV 190415Z AUTO 21007G12KT 2SM RA OVC004 17/17 A2954 RMK AO2
KOXV 190355Z AUTO 19005KT 10SM OVC005 17/17 A2955 RMK AO2
KOXV 190335Z AUTO 14006KT 10SM OVC004 17/17 A2954 RMK AO2
KOXV 190315Z AUTO 12008KT 10SM OVC004 17/17 A2953 RMK AO2
KOXV 190255Z AUTO 11006G12KT 10SM OVC005 17/17 A2952 RMK AO2 P0001
KOXV 190235Z AUTO 09009G15KT 10SM BKN005 BKN080 OVC100 17/17 A2952 RMK AO2
KOXV 190215Z AUTO 08012G17KT 8SM SCT007 BKN026 OVC100 17/17 A2952 RMK AO2
KOXV 190155Z AUTO 09008KT 9SM BKN007 OVC017 17/17 A2955 RMK AO2
KOXV 190135Z AUTO 08005G12KT 10SM BKN005 OVC009 17/17 A2955 RMK AO2
KOXV 190115Z AUTO 05009G15KT 9SM BKN005 BKN055 BKN070 17/17 A2952 RMK AO2
KOXV 190055Z AUTO 06010KT 9SM -DZ FEW055 SCT070 SCT085 17/17 A2953 RMK AO2 P0002
KOXV 190035Z AUTO 05007KT 7SM -RA FEW044 FEW060 SCT100 17/17 A2956 RMK AO2
KOXV 190015Z AUTO 34004KT 7SM -RA FEW048 FEW055 FEW100 17/17 A2959 RMK AO2
KOXV 182355Z AUTO 35004KT 9SM -RA FEW030 SCT037 BKN100 18/17 A2960 RMK AO2 P0013
KOXV 182335Z AUTO 01009KT 2 1/2SM RA BKN031 OVC037 18/18 A2959 RMK AO2
KOXV 182315Z AUTO 28010KT 4SM RA SCT032 OVC039 18/18 A2962 RMK AO2
KOXV 182255Z AUTO 27010KT 3SM RA BKN029 OVC036 18/18 A2961 RMK AO2 P0013
KOXV 182235Z AUTO 27010KT 2 1/2SM RA SCT013 BKN021 OVC029 19/18 A2964 RMK AO2
KOXV 182215Z AUTO 26008KT 3SM -RA FEW018 BKN031 OVC038 19/19 A2964 RMK AO2
KOXV 182155Z AUTO 26011KT 5SM -RA SCT032 BKN040 OVC100 20/19 A2962 RMK AO2 P0035
KOXV 182135Z AUTO 29004KT 5SM -RA FEW003 SCT031 BKN037 20/20 A2961 RMK AO2
KOXV 182115Z AUTO 22014G21KT 3SM BR FEW038 SCT047 OVC070 22/22 A2962 RMK AO2
KOXV 182055Z AUTO 21007KT 10SM OVC070 24/21 A2962 RMK AO2
KOXV 182035Z AUTO 21006KT 10SM OVC065 24/21 A2961 RMK AO2
KOXV 182015Z AUTO 21007G14KT 10SM OVC060 25/20 A2961 RMK AO2
KOXV 181955Z AUTO 19010KT 10SM OVC065 25/20 A2961 RMK AO2
KOXV 181935Z AUTO 18009KT 10SM OVC060 25/20 A2961 RMK AO2
KOXV 181915Z AUTO 18013KT 10SM BKN065 25/19 A2961 RMK AO2
KOXV 181855Z AUTO 17012KT 10SM CLR 26/21 A2960 RMK AO2
KOXV 181835Z AUTO 16011KT 10SM CLR 26/22 A2960 RMK AO2
KOXV 181815Z AUTO 15012G17KT 10SM CLR 25/23 A2960 RMK AO2
KOXV 181755Z AUTO 16013G21KT 10SM CLR 25/23 A2960 RMK AO2
KOXV 181735Z AUTO 17015KT 10SM CLR 25/23 A2960 RMK AO2
KOXV 181715Z AUTO 17015KT 10SM CLR 24/24 A2958 RMK AO2
KOXV 181655Z AUTO 17014G20KT 10SM CLR 24/24 A2960 RMK AO2
KOXV 181635Z AUTO 18015KT 10SM CLR 24/24 A2960 RMK AO2
KOXV 181615Z AUTO 17012G18KT 10SM CLR 24/24 A2959 RMK AO2
KOXV 181555Z AUTO 17013G20KT 10SM CLR 23/23 A2960 RMK AO2
KOXV 181535Z AUTO 15012KT 10SM CLR 22/22 A2959 RMK AO2
KOXV 181515Z AUTO 14010KT 10SM CLR 22/22 A2958 RMK AO2
KOXV 181455Z AUTO 13008KT 10SM CLR 21/21 A2959 RMK AO2
KOXV 181435Z AUTO 19010G15KT 10SM CLR 21/21 A2967 RMK AO2
KOXV 181415Z AUTO 19010KT 10SM FEW095 FEW110 20/19 A2967 RMK AO2
KOXV 181355Z AUTO 21009KT 10SM SCT075 BKN090 BKN110 19/19 A2970 RMK AO2
KOXV 181335Z AUTO 19008KT 10SM FEW029 BKN075 BKN090 18/18 A2971 RMK AO2
KOXV 181315Z AUTO 18009KT 10SM SCT029 BKN044 BKN095 18/18 A2970 RMK AO2
KOXV 181255Z AUTO 19010KT 10SM FEW028 BKN044 BKN075 18/18 A2970 RMK AO2 P0001
KOXV 181235Z AUTO 20012KT 10SM SCT026 BKN070 OVC090 18/18 A2968 RMK AO2
KOXV 181215Z AUTO 18009KT 9SM SCT040 BKN070 OVC120 18/18 A2967 RMK AO2
KOXV 181155Z AUTO 19011G18KT 5SM -RA SCT035 BKN070 OVC085 19/19 A2967 RMK AO2
KOXV 181135Z AUTO 18009KT 10SM BKN070 BKN080 OVC090 19/19 A2966 RMK AO2
KOXV 181115Z AUTO 16010G15KT 10SM BKN070 OVC090 20/20 A2963 RMK AO2
KOXV 181055Z AUTO 17010KT 10SM FEW046 SCT055 BKN070 20/20 A2965 RMK AO2
KOXV 181035Z AUTO 17010KT 10SM SCT049 BKN080 OVC095 20/20 A2965 RMK AO2
KOXV 181015Z AUTO 16008G14KT 10SM FEW065 BKN090 OVC150 19/19 A2965 RMK AO2
KOXV 180955Z AUTO 15008KT 10SM SCT050 BKN065 OVC085 19/19 A2966 RMK AO2
KOXV 180935Z AUTO 15009KT BKN065 BKN075 OVC085 19/19 A2966 RMK AO2
KOXV 180915Z AUTO 15009KT 10SM SCT065 BKN075 OVC085 19/19 A2967 RMK AO2
KOXV 180855Z AUTO 15006KT 10SM SCT070 BKN080 OVC150 18/18 A2968 RMK AO2